Time;durP1;ratioP1;P1;durP2;ratioP2;P2;SDS_P1;SDS_P2;PMS_P1;PMS_P2;Temp;Humidity;BMP_temperature;BMP_pressure;BME280_temperature;BME280_humidity;BME280_pressure;Samples;Min_cycle;Max_cycle;Signal;HPM_P1;HPM_P2
2021/09/23 00:02:34;;;;;;;;;;;;;;;;;;;;;
2021/09/23 00:05:00;;;;;;;36.25;20.95;;;;;;;;;;4346727;33;20139;-74
2021/09/23 00:07:25;;;;;;;40.60;21.55;;;;;;;;;;4347332;33;20135;-74
2021/09/23 00:09:58;;;;;;;35.83;20.08;;;;;;;;;;4345888;33;20215;-74
2021/09/23 00:12:32;;;;;;;43.00;22.35;;;;;;;;;;4346144;33;20159;-74
2021/09/23 00:15:07;;;;;;;41.33;22.35;;;;;;;;;;4346645;33;20221;-74
2021/09/23 00:17:32;;;;;;;40.22;23.02;;;;;;;;;;4346341;33;20226;-74
2021/09/23 00:19:58;;;;;;;38.47;22.42;;;;;;;;;;4345819;33;20140;-74
2021/09/23 00:22:23;;;;;;;38.72;22.23;;;;;;;;;;4346026;33;20136;-74
2021/09/23 00:24:48;;;;;;;35.50;21.42;;;;;;;;;;4346057;33;20161;-74
2021/09/23 00:27:13;;;;;;;39.25;22.55;;;;;;;;;;4345527;33;20178;-74
2021/09/23 00:29:39;;;;;;;42.78;22.02;;;;;;;;;;4332732;33;20221;-75
2021/09/23 00:32:04;;;;;;;34.97;20.30;;;;;;;;;;4346269;33;20525;-74
2021/09/23 00:34:29;;;;;;;42.13;21.83;;;;;;;;;;4346107;33;20588;-74
2021/09/23 00:37:00;;;;;;;39.72;20.12;;;;;;;;;;4346844;33;20139;-74
2021/09/23 00:39:25;;;;;;;39.85;21.17;;;;;;;;;;4346674;33;20148;-74
2021/09/23 00:41:51;;;;;;;38.67;21.27;;;;;;;;;;4346111;33;20143;-74
2021/09/23 00:44:26;;;;;;;41.53;22.85;;;;;;;;;;4346032;33;20507;-74
2021/09/23 00:46:51;;;;;;;38.75;20.55;;;;;;;;;;4345771;33;20158;-74
2021/09/23 00:49:19;;;;;;;40.97;21.83;;;;;;;;;;4345857;33;20449;-75
2021/09/23 00:51:45;;;;;;;37.70;20.10;;;;;;;;;;4346128;33;20194;-74
2021/09/23 00:54:10;;;;;;;38.05;21.73;;;;;;;;;;4345607;33;20148;-74
2021/09/23 00:56:36;;;;;;;39.22;23.05;;;;;;;;;;4345775;33;20612;-74
2021/09/23 00:59:10;;;;;;;45.63;22.45;;;;;;;;;;4332250;33;20470;-74
2021/09/23 01:01:45;;;;;;;;;;;;;;;;;;;;;
2021/09/23 01:04:12;;;;;;;43.42;23.65;;;;;;;;;;4345673;33;20131;-74
2021/09/23 01:06:38;;;;;;;40.17;22.17;;;;;;;;;;4345751;33;20148;-74
2021/09/23 01:09:03;;;;;;;46.70;22.62;;;;;;;;;;4345580;33;20501;-74
2021/09/23 01:11:37;;;;;;;41.78;22.48;;;;;;;;;;4345128;33;20166;-74
2021/09/23 01:14:03;;;;;;;41.47;22.70;;;;;;;;;;4346035;33;20154;-74
2021/09/23 01:16:28;;;;;;;43.70;23.85;;;;;;;;;;4345450;33;20143;-75
2021/09/23 01:18:53;;;;;;;45.42;23.70;;;;;;;;;;4345350;33;20920;-74
2021/09/23 01:21:19;;;;;;;45.63;23.70;;;;;;;;;;4331394;33;20507;-74
2021/09/23 01:23:44;;;;;;;43.80;24.90;;;;;;;;;;4331752;33;20480;-74
2021/09/23 01:26:17;;;;;;;40.35;21.87;;;;;;;;;;4344979;33;20587;-74
2021/09/23 01:28:42;;;;;;;49.15;24.75;;;;;;;;;;4345360;33;20611;-74
2021/09/23 01:31:08;;;;;;;42.20;23.00;;;;;;;;;;4345508;33;20128;-74
2021/09/23 01:33:33;;;;;;;43.35;25.00;;;;;;;;;;4331703;33;20615;-74
2021/09/23 01:36:09;;;;;;;;;;;;;;;;;;;;;
2021/09/23 01:39:12;;;;;;;49.47;25.77;;;;;;;;;;4345593;33;20179;-76
2021/09/23 01:41:51;;;;;;;45.80;24.12;;;;;;;;;;4329397;33;20162;-76
2021/09/23 01:44:37;;;;;;;50.28;26.52;;;;;;;;;;4332184;33;20179;-76
2021/09/23 01:47:11;;;;;;;52.65;26.12;;;;;;;;;;4345219;33;20222;-76
2021/09/23 01:49:36;;;;;;;50.92;26.23;;;;;;;;;;4345479;33;20139;-75
2021/09/23 01:58:23;;;;;;;51.83;27.77;;;;;;;;;;4313737;33;20624;-76
2021/09/23 02:00:52;;;;;;;47.13;26.48;;;;;;;;;;4313095;33;20230;-76
2021/09/23 02:03:19;;;;;;;52.35;26.12;;;;;;;;;;4301884;33;20266;-76
2021/09/23 02:05:50;;;;;;;50.38;26.27;;;;;;;;;;4327904;33;20195;-76
2021/09/23 02:08:15;;;;;;;50.45;26.87;;;;;;;;;;4330392;33;20199;-75
2021/09/23 02:10:40;;;;;;;55.40;29.27;;;;;;;;;;4330686;33;20144;-76
2021/09/23 02:13:06;;;;;;;50.25;27.10;;;;;;;;;;4330788;33;20135;-76
2021/09/23 02:15:34;;;;;;;44.45;26.00;;;;;;;;;;4331417;33;20203;-75
2021/09/23 02:18:08;;;;;;;51.58;29.48;;;;;;;;;;4333560;33;20632;-75
2021/09/23 02:20:36;;;;;;;53.45;28.75;;;;;;;;;;4319386;33;20197;-76
2021/09/23 02:25:57;;;;;;;52.60;28.42;;;;;;;;;;4322627;33;20155;-76
2021/09/23 02:28:22;;;;;;;51.37;29.17;;;;;;;;;;4333106;33;20255;-76
2021/09/23 02:30:59;;;;;;;51.13;28.15;;;;;;;;;;4332662;33;20143;-76
2021/09/23 02:33:27;;;;;;;53.25;27.98;;;;;;;;;;4333208;33;20167;-75
2021/09/23 02:35:53;;;;;;;57.28;31.92;;;;;;;;;;4333053;33;20198;-75
2021/09/23 02:38:18;;;;;;;53.35;28.00;;;;;;;;;;4332836;33;20151;-75
2021/09/23 02:40:43;;;;;;;56.67;31.08;;;;;;;;;;4332550;33;20170;-75
2021/09/23 02:43:09;;;;;;;57.88;31.12;;;;;;;;;;4319211;33;20209;-75
2021/09/23 02:46:13;;;;;;;;;;;;;;;;;;;;;
2021/09/23 02:49:01;;;;;;;58.65;31.77;;;;;;;;;;4333126;33;20495;-75
2021/09/23 02:51:26;;;;;;;61.47;32.30;;;;;;;;;;4347638;33;20230;-75
2021/09/23 02:53:51;;;;;;;56.00;30.33;;;;;;;;;;4347152;33;20147;-75
2021/09/23 02:56:17;;;;;;;54.88;31.48;;;;;;;;;;4348053;33;20177;-75
2021/09/23 02:58:43;;;;;;;54.40;31.95;;;;;;;;;;4347050;33;20132;-75
2021/09/23 03:01:09;;;;;;;60.30;31.48;;;;;;;;;;4347815;33;20182;-75
2021/09/23 03:03:34;;;;;;;60.38;33.13;;;;;;;;;;4347332;33;20585;-75
2021/09/23 03:06:03;;;;;;;59.03;32.17;;;;;;;;;;4347198;33;20208;-75
2021/09/23 03:08:29;;;;;;;58.92;31.40;;;;;;;;;;4347565;33;20186;-75
2021/09/23 03:10:54;;;;;;;61.70;32.70;;;;;;;;;;4347927;33;20135;-74
2021/09/23 03:13:19;;;;;;;63.08;35.85;;;;;;;;;;4347221;33;20127;-75
2021/09/23 03:15:45;;;;;;;62.58;34.13;;;;;;;;;;4347057;33;20169;-75
2021/09/23 03:18:10;;;;;;;63.83;35.50;;;;;;;;;;4347017;33;20140;-75
2021/09/23 03:20:35;;;;;;;63.67;34.35;;;;;;;;;;4347009;33;20162;-75
2021/09/23 03:23:01;;;;;;;58.90;33.13;;;;;;;;;;4346743;33;20155;-75
2021/09/23 03:25:36;;;;;;;66.10;35.42;;;;;;;;;;4333431;33;20191;-75
2021/09/23 03:28:02;;;;;;;71.62;36.97;;;;;;;;;;4332781;33;20181;-75
2021/09/23 03:30:27;;;;;;;65.12;37.10;;;;;;;;;;4346960;33;20156;-74
2021/09/23 03:32:53;;;;;;;69.22;37.30;;;;;;;;;;4333098;33;20168;-74
2021/09/23 03:35:25;;;;;;;66.68;36.13;;;;;;;;;;4347315;33;20158;-75
2021/09/23 03:37:54;;;;;;;62.10;35.90;;;;;;;;;;4340959;33;20152;-75
2021/09/23 03:40:20;;;;;;;73.32;39.58;;;;;;;;;;4332295;33;20144;-75
2021/09/23 03:42:45;;;;;;;77.32;41.47;;;;;;;;;;4318407;33;20203;-75
2021/09/23 03:45:10;;;;;;;70.00;37.72;;;;;;;;;;4318356;33;20219;-75
2021/09/23 03:47:36;;;;;;;67.37;38.85;;;;;;;;;;4331984;33;20136;-75
2021/09/23 03:50:01;;;;;;;72.35;38.83;;;;;;;;;;4332263;33;20573;-74
2021/09/23 03:52:26;;;;;;;78.85;42.90;;;;;;;;;;4331689;33;20162;-75
2021/09/23 03:54:52;;;;;;;75.97;40.58;;;;;;;;;;4331805;33;20191;-75
2021/09/23 03:57:17;;;;;;;84.70;45.50;;;;;;;;;;4318423;33;20489;-75
2021/09/23 03:59:42;;;;;;;85.80;44.20;;;;;;;;;;4331655;33;20190;-75
2021/09/23 04:02:08;;;;;;;85.55;44.22;;;;;;;;;;4331253;33;20167;-74
2021/09/23 04:04:33;;;;;;;82.50;44.22;;;;;;;;;;4331714;33;20140;-74
2021/09/23 04:06:58;;;;;;;77.80;42.20;;;;;;;;;;4344146;33;20143;-75
2021/09/23 04:09:24;;;;;;;85.95;44.17;;;;;;;;;;4346219;33;20563;-75
2021/09/23 04:11:49;;;;;;;89.55;47.22;;;;;;;;;;4346482;33;20481;-75
2021/09/23 04:14:24;;;;;;;92.65;45.83;;;;;;;;;;4346402;33;20167;-74
2021/09/23 04:16:50;;;;;;;92.85;47.62;;;;;;;;;;4346429;33;20134;-74
2021/09/23 04:19:16;;;;;;;96.32;49.08;;;;;;;;;;4346182;33;20151;-75
2021/09/23 04:21:41;;;;;;;94.28;49.15;;;;;;;;;;4345813;33;20251;-74
2021/09/23 04:24:06;;;;;;;100.00;50.28;;;;;;;;;;4345860;33;20210;-74
2021/09/23 04:26:32;;;;;;;102.00;51.20;;;;;;;;;;4345784;33;20158;-75
2021/09/23 04:28:57;;;;;;;106.10;53.15;;;;;;;;;;4346377;33;20561;-74
2021/09/23 04:31:22;;;;;;;115.88;55.33;;;;;;;;;;4345753;33;20208;-75
2021/09/23 04:33:48;;;;;;;108.53;50.45;;;;;;;;;;4345684;33;20206;-75
2021/09/23 04:36:13;;;;;;;99.25;52.05;;;;;;;;;;4345999;33;20226;-75
2021/09/23 04:38:38;;;;;;;100.30;48.15;;;;;;;;;;4345899;33;20170;-75
2021/09/23 04:41:03;;;;;;;104.87;51.92;;;;;;;;;;4345529;33;20176;-74
2021/09/23 04:43:29;;;;;;;110.85;54.53;;;;;;;;;;4332424;33;20198;-76
2021/09/23 04:45:54;;;;;;;115.18;55.63;;;;;;;;;;4346042;33;20201;-76
2021/09/23 04:48:20;;;;;;;118.70;54.70;;;;;;;;;;4345506;33;20147;-74
2021/09/23 04:50:45;;;;;;;136.95;61.13;;;;;;;;;;4346113;33;20495;-74
2021/09/23 04:53:19;;;;;;;134.90;59.72;;;;;;;;;;4332406;33;20160;-74
2021/09/23 04:55:45;;;;;;;135.48;58.67;;;;;;;;;;4346086;33;20547;-75
2021/09/23 04:58:10;;;;;;;147.40;63.90;;;;;;;;;;4332250;33;20194;-73
2021/09/23 05:00:49;;;;;;;143.73;62.60;;;;;;;;;;4345474;33;20168;-74
2021/09/23 05:03:14;;;;;;;147.65;62.25;;;;;;;;;;4345621;33;20141;-74
2021/09/23 05:05:39;;;;;;;142.82;63.08;;;;;;;;;;4346131;33;20174;-74
2021/09/23 05:08:05;;;;;;;146.32;60.17;;;;;;;;;;4345289;33;20174;-74
2021/09/23 05:10:30;;;;;;;148.38;64.55;;;;;;;;;;4331611;33;20193;-75
2021/09/23 05:12:55;;;;;;;152.87;64.47;;;;;;;;;;4345203;33;20193;-74
2021/09/23 05:15:20;;;;;;;144.45;65.03;;;;;;;;;;4343363;33;20182;-74
2021/09/23 05:17:48;;;;;;;154.20;66.62;;;;;;;;;;4330918;33;20579;-75
2021/09/23 05:20:14;;;;;;;159.18;68.10;;;;;;;;;;4330443;33;20136;-73
2021/09/23 05:22:39;;;;;;;154.77;67.80;;;;;;;;;;4330741;33;20162;-73
2021/09/23 05:25:08;;;;;;;161.35;69.53;;;;;;;;;;4330476;33;20128;-74
2021/09/23 05:27:33;;;;;;;175.85;73.28;;;;;;;;;;4330540;33;20155;-74
2021/09/23 05:30:00;;;;;;;165.50;69.87;;;;;;;;;;4330615;33;20605;-75
2021/09/23 05:32:25;;;;;;;163.43;69.93;;;;;;;;;;4319365;33;20457;-74
2021/09/23 05:35:13;;;;;;;162.57;66.95;;;;;;;;;;4345078;33;20158;-74
2021/09/23 05:37:38;;;;;;;165.20;68.30;;;;;;;;;;4346053;33;20132;-74
2021/09/23 05:40:04;;;;;;;163.90;65.62;;;;;;;;;;4345112;33;20181;-74
2021/09/23 05:42:29;;;;;;;156.40;66.97;;;;;;;;;;4344849;33;20520;-75
2021/09/23 05:44:55;;;;;;;178.10;73.85;;;;;;;;;;4345039;33;20143;-75
2021/09/23 05:47:20;;;;;;;164.55;68.03;;;;;;;;;;4345242;33;20128;-73
2021/09/23 05:49:45;;;;;;;155.75;63.33;;;;;;;;;;4345167;33;20131;-75
2021/09/23 05:52:11;;;;;;;157.37;64.47;;;;;;;;;;4348299;33;20162;-73
2021/09/23 05:54:36;;;;;;;169.37;70.90;;;;;;;;;;4333918;33;20218;-73
2021/09/23 05:57:01;;;;;;;153.98;62.67;;;;;;;;;;4347329;33;20251;-75
2021/09/23 05:59:27;;;;;;;165.20;68.03;;;;;;;;;;4347306;33;20189;-75
2021/09/23 06:01:56;;;;;;;152.55;62.20;;;;;;;;;;4347507;33;20156;-73
2021/09/23 06:04:21;;;;;;;150.90;63.45;;;;;;;;;;4333926;33;20155;-74
2021/09/23 06:06:53;;;;;;;156.63;65.97;;;;;;;;;;4347597;33;20223;-74
2021/09/23 06:09:18;;;;;;;148.07;61.65;;;;;;;;;;4332414;33;20608;-72
2021/09/23 06:11:43;;;;;;;148.05;61.05;;;;;;;;;;4332128;33;20145;-73
2021/09/23 06:14:16;;;;;;;144.90;61.92;;;;;;;;;;4333568;33;20487;-73
2021/09/23 06:16:41;;;;;;;141.75;61.30;;;;;;;;;;4324025;33;20226;-73
2021/09/23 06:19:07;;;;;;;151.00;67.18;;;;;;;;;;4321723;33;20477;-74
2021/09/23 06:21:39;;;;;;;140.43;61.50;;;;;;;;;;4345154;33;20524;-74
2021/09/23 06:24:05;;;;;;;136.60;58.58;;;;;;;;;;4324586;33;20178;-73
2021/09/23 06:26:30;;;;;;;129.93;56.75;;;;;;;;;;4345486;33;20174;-73
2021/09/23 06:28:55;;;;;;;138.23;58.28;;;;;;;;;;4342825;33;20189;-73
2021/09/23 06:31:21;;;;;;;128.52;55.45;;;;;;;;;;4347751;33;20154;-74
2021/09/23 06:33:46;;;;;;;122.10;56.67;;;;;;;;;;4338739;33;20143;-73
2021/09/23 06:36:13;;;;;;;122.78;55.10;;;;;;;;;;4333091;33;20198;-74
2021/09/23 06:38:48;;;;;;;125.43;57.17;;;;;;;;;;4333308;33;20140;-74
2021/09/23 06:41:14;;;;;;;133.30;57.10;;;;;;;;;;4332838;33;20205;-73
2021/09/23 06:43:40;;;;;;;124.80;56.72;;;;;;;;;;4346256;33;20147;-74
2021/09/23 06:46:05;;;;;;;117.28;51.35;;;;;;;;;;4340233;33;20195;-75
2021/09/23 06:48:31;;;;;;;119.90;54.97;;;;;;;;;;4341241;33;20563;-74
2021/09/23 06:50:56;;;;;;;102.93;49.97;;;;;;;;;;4347240;33;20157;-75
2021/09/23 06:53:22;;;;;;;105.75;48.10;;;;;;;;;;4346760;33;20182;-74
2021/09/23 06:55:47;;;;;;;102.62;47.47;;;;;;;;;;4343924;33;20143;-74
2021/09/23 06:58:12;;;;;;;107.20;51.97;;;;;;;;;;4346834;33;20155;-73
2021/09/23 07:00:52;;;;;;;109.30;53.33;;;;;;;;;;4346756;32;20216;-75
2021/09/23 07:03:18;;;;;;;107.05;48.97;;;;;;;;;;4322164;33;20158;-75
2021/09/23 07:05:44;;;;;;;103.78;49.60;;;;;;;;;;4342703;33;20593;-73
2021/09/23 07:08:09;;;;;;;102.53;48.80;;;;;;;;;;4342595;33;20140;-73
2021/09/23 07:10:35;;;;;;;94.85;45.00;;;;;;;;;;4346626;33;20159;-73
2021/09/23 07:13:00;;;;;;;106.82;47.25;;;;;;;;;;4347174;33;20253;-73
2021/09/23 07:15:26;;;;;;;94.93;45.85;;;;;;;;;;4347026;33;20153;-74
2021/09/23 07:17:51;;;;;;;93.05;47.97;;;;;;;;;;4346797;33;20143;-74
2021/09/23 07:20:16;;;;;;;90.30;46.60;;;;;;;;;;4343468;33;20233;-73
2021/09/23 07:22:47;;;;;;;86.50;46.70;;;;;;;;;;4341465;33;20135;-75
2021/09/23 07:25:12;;;;;;;75.30;40.72;;;;;;;;;;4335257;33;20152;-73
2021/09/23 07:27:37;;;;;;;84.43;43.40;;;;;;;;;;4337029;33;20175;-75
2021/09/23 07:30:04;;;;;;;80.07;40.22;;;;;;;;;;4331674;33;20143;-74
2021/09/23 07:32:29;;;;;;;84.65;43.85;;;;;;;;;;4342124;33;20144;-74
2021/09/23 07:34:54;;;;;;;83.37;42.90;;;;;;;;;;4346421;33;20171;-73
2021/09/23 07:37:36;;;;;;;83.93;42.40;;;;;;;;;;4346511;33;20175;-74
2021/09/23 07:40:02;;;;;;;79.53;42.38;;;;;;;;;;4345190;33;20219;-74
2021/09/23 07:42:38;;;;;;;74.50;40.58;;;;;;;;;;4345806;33;20162;-74
2021/09/23 07:45:04;;;;;;;71.28;36.10;;;;;;;;;;4345778;33;20131;-75
2021/09/23 07:47:29;;;;;;;70.68;37.90;;;;;;;;;;4345886;33;20178;-74
2021/09/23 07:50:01;;;;;;;74.87;37.53;;;;;;;;;;4346138;33;20604;-74
2021/09/23 07:52:38;;;;;;;61.08;35.13;;;;;;;;;;4345879;33;20569;-74
2021/09/23 07:55:05;;;;;;;65.05;34.10;;;;;;;;;;4331841;33;20151;-73
2021/09/23 07:57:38;;;;;;;57.72;31.37;;;;;;;;;;4345860;33;20151;-74
2021/09/23 08:00:04;;;;;;;48.33;28.58;;;;;;;;;;4345881;33;20465;-74
2021/09/23 08:02:29;;;;;;;43.80;25.25;;;;;;;;;;4346151;33;20131;-74
2021/09/23 08:04:54;;;;;;;41.80;26.20;;;;;;;;;;4344727;33;20233;-74
2021/09/23 08:07:20;;;;;;;46.90;25.00;;;;;;;;;;4343622;33;20477;-74
2021/09/23 08:09:48;;;;;;;47.83;28.00;;;;;;;;;;4337505;33;20522;-72
2021/09/23 08:12:19;;;;;;;31.58;21.62;;;;;;;;;;4331025;33;20225;-74
2021/09/23 08:14:47;;;;;;;26.48;16.20;;;;;;;;;;4326087;33;20167;-74
2021/09/23 08:17:22;;;;;;;;;;;;;;;;;;;;;
2021/09/23 08:19:48;;;;;;;19.92;11.82;;;;;;;;;;4331854;33;20135;-74
2021/09/23 08:22:21;;;;;;;18.73;11.77;;;;;;;;;;4331417;33;20174;-75
2021/09/23 08:24:48;;;;;;;18.98;11.00;;;;;;;;;;4331878;33;20155;-75
2021/09/23 08:27:26;;;;;;;17.30;9.43;;;;;;;;;;4331377;33;20149;-76
2021/09/23 08:29:54;;;;;;;15.88;6.93;;;;;;;;;;4342970;33;20147;-74
2021/09/23 08:32:20;;;;;;;13.75;5.47;;;;;;;;;;4345499;33;20140;-74
2021/09/23 08:34:46;;;;;;;16.25;5.47;;;;;;;;;;4340050;33;20511;-75
2021/09/23 08:37:18;;;;;;;10.02;4.57;;;;;;;;;;4331663;33;20206;-73
2021/09/23 08:39:43;;;;;;;8.05;4.28;;;;;;;;;;4337550;33;20182;-74
2021/09/23 08:42:08;;;;;;;14.40;4.25;;;;;;;;;;4337139;33;20538;-74
2021/09/23 08:44:36;;;;;;;13.70;4.12;;;;;;;;;;4330843;33;20147;-74
2021/09/23 08:47:02;;;;;;;13.27;3.65;;;;;;;;;;4337618;33;20147;-75
2021/09/23 08:49:30;;;;;;;9.10;3.87;;;;;;;;;;4344401;33;20487;-76
2021/09/23 08:51:56;;;;;;;12.93;4.43;;;;;;;;;;4332093;33;20172;-74
2021/09/23 08:54:21;;;;;;;9.38;4.10;;;;;;;;;;4345511;33;20531;-75
2021/09/23 08:57:03;;;;;;;8.88;4.00;;;;;;;;;;4337634;33;20203;-75
2021/09/23 08:59:34;;;;;;;8.25;4.05;;;;;;;;;;4338252;33;20249;-75
2021/09/23 09:02:18;;;;;;;11.55;4.00;;;;;;;;;;4328053;33;20272;-74
2021/09/23 09:04:50;;;;;;;8.40;3.90;;;;;;;;;;4328170;33;20253;-74
2021/09/23 09:07:20;;;;;;;11.32;3.80;;;;;;;;;;4337755;33;20217;-74
2021/09/23 09:10:39;;;;;;;9.70;3.50;;;;;;;;;;4335302;33;20179;-74
2021/09/23 09:13:06;;;;;;;10.57;4.00;;;;;;;;;;4338698;33;20168;-75
2021/09/23 09:15:33;;;;;;;12.10;3.60;;;;;;;;;;4344973;33;20209;-74
2021/09/23 09:18:10;;;;;;;11.25;4.00;;;;;;;;;;4339454;33;20159;-77
2021/09/23 09:20:48;;;;;;;6.60;3.40;;;;;;;;;;4338880;33;20195;-75
2021/09/23 09:23:28;;;;;;;11.68;3.80;;;;;;;;;;4331023;33;20132;-75
2021/09/23 09:25:53;;;;;;;8.00;3.95;;;;;;;;;;4326755;33;20613;-74
2021/09/23 09:28:24;;;;;;;10.20;3.75;;;;;;;;;;4344198;33;20158;-74
2021/09/23 09:30:56;;;;;;;6.53;3.58;;;;;;;;;;4341420;33;20170;-76
2021/09/23 09:33:22;;;;;;;9.43;3.50;;;;;;;;;;4345276;33;20161;-75
2021/09/23 09:35:47;;;;;;;37.35;4.60;;;;;;;;;;4345489;33;20574;-73
2021/09/23 09:38:16;;;;;;;7.22;3.00;;;;;;;;;;4344960;33;20136;-75
2021/09/23 09:40:42;;;;;;;8.63;3.20;;;;;;;;;;4344724;33;20155;-75
2021/09/23 09:43:11;;;;;;;11.25;3.37;;;;;;;;;;4338829;33;20147;-75
2021/09/23 09:45:38;;;;;;;6.78;3.47;;;;;;;;;;4335592;33;20206;-76
2021/09/23 09:48:06;;;;;;;7.37;3.20;;;;;;;;;;4344751;33;20136;-74
2021/09/23 09:50:33;;;;;;;5.85;3.00;;;;;;;;;;4341126;33;20172;-76
2021/09/23 09:53:01;;;;;;;9.02;3.17;;;;;;;;;;4341449;33;20151;-75
2021/09/23 09:55:34;;;;;;;6.50;3.10;;;;;;;;;;4344775;33;20147;-75
2021/09/23 09:58:00;;;;;;;8.40;3.45;;;;;;;;;;4344850;33;20170;-74
2021/09/23 10:00:26;;;;;;;6.47;2.78;;;;;;;;;;4344705;33;20266;-74
2021/09/23 10:02:51;;;;;;;6.43;2.65;;;;;;;;;;4331302;33;20190;-74
2021/09/23 10:05:20;;;;;;;5.62;2.70;;;;;;;;;;4345339;33;20190;-76
2021/09/23 10:07:47;;;;;;;6.30;2.90;;;;;;;;;;4344260;33;20209;-75
2021/09/23 10:10:14;;;;;;;8.25;2.83;;;;;;;;;;4344664;33;20140;-74
2021/09/23 10:12:41;;;;;;;8.80;3.15;;;;;;;;;;4344808;33;20155;-74
2021/09/23 10:15:10;;;;;;;5.60;2.80;;;;;;;;;;4330235;33;20144;-75
2021/09/23 10:17:36;;;;;;;6.20;2.80;;;;;;;;;;4336727;33;20643;-74
2021/09/23 10:20:06;;;;;;;8.63;2.90;;;;;;;;;;4336698;33;20230;-75
2021/09/23 10:22:32;;;;;;;9.95;3.45;;;;;;;;;;4335815;33;20163;-74
2021/09/23 10:25:05;;;;;;;7.53;3.37;;;;;;;;;;4331096;33;20562;-75
2021/09/23 10:30:15;;;;;;;13.00;3.30;;;;;;;;;;4335643;33;20190;-74
2021/09/23 10:32:40;;;;;;;7.85;3.47;;;;;;;;;;4345839;33;20550;-75
2021/09/23 10:35:06;;;;;;;8.63;3.70;;;;;;;;;;4338866;33;20151;-76
2021/09/23 10:37:32;;;;;;;10.15;3.40;;;;;;;;;;4346166;33;20589;-76
2021/09/23 10:40:17;;;;;;;9.70;3.78;;;;;;;;;;4342050;33;20592;-75
2021/09/23 10:42:58;;;;;;;7.80;3.85;;;;;;;;;;4344465;33;20143;-75
2021/09/23 10:45:27;;;;;;;7.32;3.42;;;;;;;;;;4333535;33;20230;-75
2021/09/23 10:48:00;;;;;;;7.05;3.17;;;;;;;;;;4339074;33;20159;-75
2021/09/23 10:50:30;;;;;;;7.95;2.72;;;;;;;;;;4342151;33;20261;-75
2021/09/23 10:52:56;;;;;;;7.82;2.85;;;;;;;;;;4343695;33;20211;-75
2021/09/23 10:55:25;;;;;;;7.18;2.65;;;;;;;;;;4337381;33;20189;-75
2021/09/23 10:57:51;;;;;;;5.18;2.30;;;;;;;;;;4343153;33;20148;-75
2021/09/23 11:00:31;;;;;;;6.15;2.85;;;;;;;;;;4327160;33;20163;-76
2021/09/23 11:03:02;;;;;;;7.35;2.42;;;;;;;;;;4323050;33;20183;-76
2021/09/23 11:05:27;;;;;;;4.07;2.03;;;;;;;;;;4317905;33;20163;-74
2021/09/23 11:07:52;;;;;;;4.20;2.10;;;;;;;;;;4328193;33;20517;-74
2021/09/23 11:10:22;;;;;;;7.40;2.30;;;;;;;;;;4317239;33;20163;-75
2021/09/23 11:12:48;;;;;;;8.43;2.58;;;;;;;;;;4304331;33;20180;-74
2021/09/23 11:15:15;;;;;;;6.45;2.05;;;;;;;;;;4317677;33;20567;-76
2021/09/23 11:17:41;;;;;;;5.55;2.00;;;;;;;;;;4304488;33;20529;-75
2021/09/23 11:20:07;;;;;;;7.82;2.05;;;;;;;;;;4328340;33;20148;-76
2021/09/23 11:22:34;;;;;;;8.57;1.92;;;;;;;;;;4331855;33;20199;-75
2021/09/23 11:25:20;;;;;;;10.07;1.73;;;;;;;;;;4331893;33;20156;-75
2021/09/23 11:27:46;;;;;;;5.45;1.60;;;;;;;;;;4318979;33;20604;-75
2021/09/23 11:30:13;;;;;;;5.40;1.62;;;;;;;;;;4331671;33;20174;-76
2021/09/23 11:32:51;;;;;;;6.78;1.67;;;;;;;;;;4331487;33;20489;-76
2021/09/23 11:35:18;;;;;;;6.60;1.80;;;;;;;;;;4323604;33;20148;-76
2021/09/23 11:37:43;;;;;;;5.97;1.80;;;;;;;;;;4317113;33;20171;-75
2021/09/23 11:43:09;;;;;;;5.15;1.80;;;;;;;;;;4313419;33;20156;-75
2021/09/23 11:45:36;;;;;;;7.68;1.75;;;;;;;;;;4318899;33;20148;-75
2021/09/23 11:48:07;;;;;;;5.07;2.00;;;;;;;;;;4331044;33;20210;-76
2021/09/23 11:50:34;;;;;;;8.65;1.55;;;;;;;;;;4332163;33;20116;-72
2021/09/23 11:53:13;;;;;;;8.23;2.03;;;;;;;;;;4332110;33;20542;-75
2021/09/23 11:55:43;;;;;;;8.23;1.80;;;;;;;;;;4331971;33;20136;-76
2021/09/23 11:58:12;;;;;;;5.70;1.50;;;;;;;;;;4332000;33;20159;-75
2021/09/23 12:00:39;;;;;;;6.70;2.10;;;;;;;;;;4340890;33;20179;-75
2021/09/23 12:03:05;;;;;;;4.78;1.60;;;;;;;;;;4345851;33;20185;-75
2021/09/23 12:05:31;;;;;;;6.75;2.03;;;;;;;;;;4345910;33;20131;-76
2021/09/23 12:08:03;;;;;;;6.97;1.80;;;;;;;;;;4345800;33;20123;-75
2021/09/23 12:10:28;;;;;;;4.90;1.67;;;;;;;;;;4346099;33;20150;-75
2021/09/23 12:13:03;;;;;;;5.65;1.50;;;;;;;;;;4346561;33;20213;-75
2021/09/23 12:15:31;;;;;;;9.65;2.03;;;;;;;;;;4346237;33;20537;-76
2021/09/23 12:18:03;;;;;;;6.07;1.60;;;;;;;;;;4345614;33;20132;-76
2021/09/23 12:21:34;;;;;;;8.25;2.25;;;;;;;;;;4346637;33;20234;-76
2021/09/23 12:23:37;;;;;;;9.93;2.10;;;;;;;;;;4338325;33;20237;-76
2021/09/23 12:26:03;;;;;;;8.93;2.40;;;;;;;;;;4342466;33;20140;-76
2021/09/23 12:28:29;;;;;;;8.30;2.33;;;;;;;;;;4345331;33;20177;-76
2021/09/23 12:31:01;;;;;;;6.82;2.20;;;;;;;;;;4345393;33;20143;-75
2021/09/23 12:33:26;;;;;;;6.43;2.40;;;;;;;;;;4345699;33;20678;-75
2021/09/23 12:36:12;;;;;;;8.23;2.20;;;;;;;;;;4332291;33;20155;-74
2021/09/23 12:38:38;;;;;;;9.55;1.90;;;;;;;;;;4341443;33;20239;-74
2021/09/23 12:41:20;;;;;;;9.82;2.60;;;;;;;;;;4339333;33;20566;-73
2021/09/23 12:43:46;;;;;;;9.02;2.50;;;;;;;;;;4340005;33;20172;-77
2021/09/23 12:46:20;;;;;;;10.50;2.62;;;;;;;;;;4330902;33;20124;-75
2021/09/23 12:48:51;;;;;;;8.30;2.60;;;;;;;;;;4341976;33;20604;-76
2021/09/23 12:51:36;;;;;;;6.75;2.60;;;;;;;;;;4345789;33;20127;-75
2021/09/23 12:54:24;;;;;;;9.43;2.60;;;;;;;;;;4340066;33;20174;-76
2021/09/23 12:56:49;;;;;;;9.85;2.75;;;;;;;;;;4332654;33;20659;-76
2021/09/23 12:59:22;;;;;;;9.73;2.60;;;;;;;;;;4337562;33;20155;-75
2021/09/23 13:01:51;;;;;;;10.13;2.58;;;;;;;;;;4313663;33;20230;-77
2021/09/23 13:04:23;;;;;;;6.78;2.40;;;;;;;;;;4326596;33;20187;-75
2021/09/23 13:07:06;;;;;;;8.65;2.90;;;;;;;;;;4336616;33;20136;-76
2021/09/23 13:09:32;;;;;;;6.82;2.30;;;;;;;;;;4345724;33;20422;-75
2021/09/23 13:12:16;;;;;;;10.98;2.67;;;;;;;;;;4344807;33;20169;-76
2021/09/23 13:14:45;;;;;;;6.40;2.50;;;;;;;;;;4345070;33;20128;-76
2021/09/23 13:17:24;;;;;;;10.57;2.58;;;;;;;;;;4331203;33;20623;-76
2021/09/23 13:19:51;;;;;;;8.88;2.47;;;;;;;;;;4330197;33;20248;-76
2021/09/23 13:22:17;;;;;;;7.05;2.35;;;;;;;;;;4330203;33;20136;-76
2021/09/23 13:24:42;;;;;;;23.45;2.85;;;;;;;;;;4316706;33;20533;-77
2021/09/23 13:27:07;;;;;;;7.03;1.90;;;;;;;;;;4330085;33;20170;-75
2021/09/23 13:29:32;;;;;;;6.53;2.05;;;;;;;;;;4330805;33;20186;-76
2021/09/23 13:31:58;;;;;;;7.07;2.33;;;;;;;;;;4332011;33;20171;-76
2021/09/23 13:34:32;;;;;;;8.73;2.28;;;;;;;;;;4345134;33;20147;-76
2021/09/23 13:36:57;;;;;;;6.20;2.45;;;;;;;;;;4332276;33;20156;-76
2021/09/23 13:39:22;;;;;;;6.87;2.50;;;;;;;;;;4344714;33;20580;-76
2021/09/23 13:41:47;;;;;;;6.72;2.12;;;;;;;;;;4342186;33;20140;-74
2021/09/23 13:44:13;;;;;;;8.95;2.17;;;;;;;;;;4344816;33;20143;-76
2021/09/23 13:46:38;;;;;;;6.37;2.37;;;;;;;;;;4343848;33;20143;-76
2021/09/23 13:49:03;;;;;;;8.67;2.20;;;;;;;;;;4344560;33;20155;-76
2021/09/23 13:51:29;;;;;;;6.70;2.28;;;;;;;;;;4330282;33;20263;-76
2021/09/23 13:53:55;;;;;;;7.05;1.75;;;;;;;;;;4342798;33;20530;-76
2021/09/23 13:56:30;;;;;;;;;;;;;;;;;;;;;
2021/09/23 13:58:59;;;;;;;6.25;1.70;;;;;;;;;;4344339;33;20225;-77
2021/09/23 14:01:24;;;;;;;8.93;2.15;;;;;;;;;;4335581;33;20450;-77
2021/09/23 14:03:49;;;;;;;4.13;1.77;;;;;;;;;;4324029;33;20221;-76
2021/09/23 14:06:15;;;;;;;4.47;2.00;;;;;;;;;;4335441;33;20326;-76
2021/09/23 14:08:40;;;;;;;6.82;2.10;;;;;;;;;;4344219;33;20152;-76
2021/09/23 14:11:06;;;;;;;10.23;1.77;;;;;;;;;;4344814;33;20139;-77
2021/09/23 14:13:45;;;;;;;4.45;1.80;;;;;;;;;;4344555;33;20193;-75
2021/09/23 14:16:11;;;;;;;5.72;1.85;;;;;;;;;;4342960;33;20635;-77
2021/09/23 14:18:49;;;;;;;4.87;2.22;;;;;;;;;;4335402;33;20152;-76
2021/09/23 14:21:24;;;;;;;5.68;1.87;;;;;;;;;;4346975;33;20631;-77
2021/09/23 14:24:01;;;;;;;3.47;2.05;;;;;;;;;;4328868;33;20227;-77
2021/09/23 14:26:28;;;;;;;5.53;2.25;;;;;;;;;;4334416;33;20182;-76
2021/09/23 14:28:59;;;;;;;4.85;2.05;;;;;;;;;;4340334;33;20144;-76
2021/09/23 14:31:27;;;;;;;9.07;2.90;;;;;;;;;;4343835;33;20135;-76
2021/09/23 14:34:02;;;;;;;7.37;2.20;;;;;;;;;;4343787;33;20159;-74
2021/09/23 14:36:27;;;;;;;7.78;2.70;;;;;;;;;;4334015;33;20154;-75
2021/09/23 14:39:02;;;;;;;5.40;2.40;;;;;;;;;;4341674;33;20139;-77
2021/09/23 14:41:36;;;;;;;6.18;2.35;;;;;;;;;;4344303;33;20601;-76
2021/09/23 14:44:02;;;;;;;5.55;1.80;;;;;;;;;;4327798;33;20170;-78
2021/09/23 14:46:37;;;;;;;4.78;2.00;;;;;;;;;;4333614;33;20528;-76
2021/09/23 14:49:02;;;;;;;7.35;2.00;;;;;;;;;;4347537;33;20131;-77
2021/09/23 14:51:30;;;;;;;6.87;2.20;;;;;;;;;;4346504;33;20194;-75
2021/09/23 14:53:55;;;;;;;6.55;2.30;;;;;;;;;;4347390;33;20155;-74
2021/09/23 14:56:23;;;;;;;4.57;2.45;;;;;;;;;;4346946;33;20152;-76